Time;durP1;ratioP1;P1;durP2;ratioP2;P2;SDS_P1;SDS_P2;PMS_P1;PMS_P2;Temp;Humidity;BMP_temperature;BMP_pressure;BME280_temperature;BME280_humidity;BME280_pressure;Samples;Min_cycle;Max_cycle;Signal;HPM_P1;HPM_P2
2022/01/29 00:01:06;;;;;;;16.27;7.90;;;;;;;-143.84;66.04;45167.13;5071209;28;20440;-74
2022/01/29 00:03:35;;;;;;;17.77;8.20;;;;;;;-143.84;66.30;45180.47;5071624;28;20443;-74
2022/01/29 00:06:03;;;;;;;10.50;7.73;;;;;;;-143.84;66.30;45178.56;5071302;28;20869;-74
2022/01/29 00:08:30;;;;;;;12.33;7.40;;;;;;;-143.84;66.25;45170.94;5071284;28;20437;-74
2022/01/29 00:11:03;;;;;;;11.93;7.40;;;;;;;-143.84;65.98;45151.91;5070991;28;20471;-74
2022/01/29 00:13:32;;;;;;;9.90;7.57;;;;;;;-143.84;66.23;45180.47;5071203;28;20922;-73
2022/01/29 00:15:59;;;;;;;11.77;6.87;;;;;;;-143.84;66.16;45150.00;5071107;28;20437;-74
2022/01/29 00:18:26;;;;;;;13.13;7.30;;;;;;;-143.84;66.73;45184.25;5071507;28;20455;-74
2022/01/29 00:20:53;;;;;;;10.17;7.83;;;;;;;-143.84;66.91;45151.91;5071409;28;20439;-75
2022/01/29 00:23:20;;;;;;;11.60;8.03;;;;;;;-143.84;66.47;45123.34;5074437;28;20490;-74
2022/01/29 00:25:48;;;;;;;18.00;8.10;;;;;;;-143.84;66.66;45178.56;5075341;28;20796;-74
2022/01/29 00:28:15;;;;;;;15.30;8.73;;;;;;;-143.84;66.93;45127.13;5075387;28;20436;-74
2022/01/29 00:30:44;;;;;;;12.63;7.40;;;;;;;-143.84;67.43;45144.28;5075343;28;20453;-73
2022/01/29 00:33:12;;;;;;;11.93;8.80;;;;;;;-143.84;67.24;45136.66;5075076;28;20547;-74
2022/01/29 00:35:40;;;;;;;20.60;9.50;;;;;;;-143.84;66.68;45157.59;5075373;28;20432;-76
2022/01/29 00:38:07;;;;;;;11.27;7.83;;;;;;;-143.84;67.20;45130.94;5075095;28;20493;-74
2022/01/29 00:40:36;;;;;;;13.13;7.83;;;;;;;-143.84;67.04;45150.00;5075054;28;20488;-74
2022/01/29 00:43:04;;;;;;;11.60;8.67;;;;;;;-143.84;67.64;45155.69;5074809;28;20973;-74
2022/01/29 00:45:33;;;;;;;13.40;7.77;;;;;;;-143.84;67.64;45161.41;5075231;28;20793;-74
2022/01/29 00:48:01;;;;;;;12.67;8.27;;;;;;;-143.84;67.55;45167.13;5075066;28;20950;-73
2022/01/29 00:50:29;;;;;;;16.43;8.50;;;;;;;-143.84;68.08;45186.16;5075413;28;20445;-74
2022/01/29 00:52:56;;;;;;;9.87;7.10;;;;;;;-143.84;67.98;45136.66;5075252;28;21053;-74
2022/01/29 00:55:23;;;;;;;17.33;8.00;;;;;;;-143.84;68.69;45155.69;5074623;28;20995;-74
2022/01/29 00:57:50;;;;;;;10.73;7.50;;;;;;;-143.84;68.77;45159.50;5074656;28;20516;-73
2022/01/29 01:00:18;;;;;;;15.63;7.90;;;;;;;-143.84;68.59;45155.69;5074367;28;20443;-74
2022/01/29 01:02:45;;;;;;;12.50;7.70;;;;;;;-143.84;68.53;45144.28;5074668;28;20499;-73
2022/01/29 01:05:14;;;;;;;14.87;7.30;;;;;;;-143.84;69.00;45153.81;5074353;28;20480;-74
2022/01/29 01:07:42;;;;;;;9.70;7.43;;;;;;;-143.84;68.88;45155.69;5073094;28;21115;-74
2022/01/29 01:10:11;;;;;;;11.93;7.70;;;;;;;-143.84;69.23;45165.22;5073921;28;20462;-74
2022/01/29 01:12:38;;;;;;;10.93;7.30;;;;;;;-143.84;69.57;45174.75;5074537;28;20853;-74
2022/01/29 01:15:07;;;;;;;7.57;6.13;;;;;;;-143.84;69.87;45163.31;5074608;28;20424;-73
2022/01/29 01:17:34;;;;;;;17.40;7.20;;;;;;;-143.84;69.80;45169.03;5074264;28;20826;-74
2022/01/29 01:20:01;;;;;;;9.67;7.37;;;;;;;-143.84;70.12;45172.84;5074295;28;20445;-75
2022/01/29 01:22:30;;;;;;;13.10;6.87;;;;;;;-143.84;70.50;45174.75;5073900;28;20846;-74
2022/01/29 01:24:57;;;;;;;12.00;7.47;;;;;;;-143.84;70.06;45146.19;5074079;28;20447;-74
2022/01/29 01:27:24;;;;;;;15.37;6.37;;;;;;;-143.84;70.83;45163.31;5074660;28;20443;-74
2022/01/29 01:29:51;;;;;;;12.13;7.30;;;;;;;-143.84;70.99;45134.75;5074109;28;20811;-74
2022/01/29 01:32:19;;;;;;;17.10;6.97;;;;;;;-143.84;70.94;45172.84;5072765;28;20480;-74
2022/01/29 01:34:49;;;;;;;17.47;7.13;;;;;;;-143.84;70.61;45163.31;5072793;28;20434;-74
2022/01/29 01:37:28;;;;;;;14.67;6.47;;;;;;;-143.84;70.98;45167.13;5074750;28;20465;-74
2022/01/29 01:39:57;;;;;;;10.47;6.20;;;;;;;-143.84;70.93;45151.91;5074244;28;20457;-74
2022/01/29 01:42:24;;;;;;;15.40;7.60;;;;;;;-143.84;71.01;45151.91;5074281;28;20442;-73
2022/01/29 01:44:52;;;;;;;14.20;7.20;;;;;;;-143.84;70.82;45169.03;5074409;28;20900;-74
2022/01/29 01:47:20;;;;;;;18.73;8.00;;;;;;;-143.84;71.10;45157.59;5074024;28;20437;-74
2022/01/29 01:49:47;;;;;;;15.50;6.83;;;;;;;-143.84;70.46;45157.59;5073372;28;20966;-74
2022/01/29 01:52:15;;;;;;;9.77;6.80;;;;;;;-143.84;71.11;45170.94;5073747;28;20499;-74
2022/01/29 01:54:44;;;;;;;11.50;7.27;;;;;;;-143.84;70.68;45155.69;5073775;28;20437;-74
2022/01/29 01:57:13;;;;;;;15.87;9.00;;;;;;;-143.84;71.20;45151.91;5073881;28;20442;-74
2022/01/29 01:59:40;;;;;;;12.50;8.10;;;;;;;-143.84;71.26;45132.84;5074209;28;20444;-74
2022/01/29 02:02:07;;;;;;;14.90;7.13;;;;;;;-143.84;71.31;45155.69;5074156;28;20919;-74
2022/01/29 02:04:35;;;;;;;11.53;7.20;;;;;;;-143.84;71.72;45155.69;5073903;28;20855;-74
2022/01/29 02:07:02;;;;;;;11.00;7.60;;;;;;;-143.84;71.59;45155.69;5073210;28;20491;-74
2022/01/29 02:09:31;;;;;;;11.53;7.50;;;;;;;-143.84;71.43;45167.13;5073711;28;20433;-74
2022/01/29 02:12:01;;;;;;;13.07;7.90;;;;;;;-143.84;72.06;45163.31;5073845;28;20472;-74
2022/01/29 02:14:31;;;;;;;19.20;9.10;;;;;;;-143.84;72.38;45134.75;5073680;28;20492;-74
2022/01/29 02:17:00;;;;;;;10.93;6.77;;;;;;;-143.84;72.67;45167.13;5073735;28;20437;-74
2022/01/29 02:19:28;;;;;;;10.43;7.07;;;;;;;-143.84;72.38;45186.16;5073221;28;20869;-74
2022/01/29 02:21:58;;;;;;;13.47;7.83;;;;;;;-143.84;72.71;45144.28;5073542;28;20434;-75
2022/01/29 02:24:25;;;;;;;12.77;8.07;;;;;;;-143.84;73.02;45151.91;5071659;28;20880;-74
2022/01/29 02:26:53;;;;;;;12.70;7.67;;;;;;;-143.84;73.27;45174.75;5073381;28;20487;-74
2022/01/29 02:29:20;;;;;;;15.10;8.33;;;;;;;-143.84;73.29;45144.28;5073495;28;20445;-74
2022/01/29 02:31:49;;;;;;;15.23;8.57;;;;;;;-143.84;73.34;45163.31;5073324;28;20485;-74
2022/01/29 02:34:17;;;;;;;9.53;6.90;;;;;;;-143.84;73.47;45157.59;5073059;28;20448;-74
2022/01/29 02:36:45;;;;;;;10.43;6.83;;;;;;;-143.84;73.57;45163.31;5073235;28;20433;-74
2022/01/29 02:39:16;;;;;;;12.00;7.60;;;;;;;-143.84;73.55;45176.66;5072972;28;21087;-73
2022/01/29 02:41:44;;;;;;;17.00;7.90;;;;;;;-143.84;73.73;45167.13;5072778;28;20518;-73
2022/01/29 02:44:15;;;;;;;10.77;7.30;;;;;;;-143.84;73.84;45142.38;5072795;28;20444;-73
2022/01/29 02:46:49;;;;;;;8.23;6.40;;;;;;;-143.84;73.75;45153.81;5071988;28;20522;-74
2022/01/29 02:49:17;;;;;;;12.43;6.73;;;;;;;-143.84;73.37;45186.16;5072996;28;20494;-74
2022/01/29 02:51:45;;;;;;;9.00;7.00;;;;;;;-143.84;73.41;45155.69;5072567;28;20425;-73
2022/01/29 02:54:14;;;;;;;15.20;7.23;;;;;;;-143.84;73.08;45167.13;5072587;28;20553;-74
2022/01/29 02:56:42;;;;;;;12.30;7.30;;;;;;;-143.84;73.79;45151.91;5072477;28;20457;-74
2022/01/29 02:59:10;;;;;;;13.00;7.00;;;;;;;-143.84;73.56;45189.97;5073064;28;20432;-74
2022/01/29 03:01:38;;;;;;;7.10;6.10;;;;;;;-143.84;73.40;45146.19;5072462;28;20433;-74
2022/01/29 03:04:05;;;;;;;13.50;6.93;;;;;;;-143.84;73.93;45146.19;5072473;28;20441;-75
2022/01/29 03:06:33;;;;;;;9.53;6.40;;;;;;;-143.84;74.03;45159.50;5071928;28;20473;-74
2022/01/29 03:09:01;;;;;;;9.60;6.70;;;;;;;-143.84;73.71;45146.19;5072428;28;20432;-74
2022/01/29 03:11:30;;;;;;;9.67;5.93;;;;;;;-143.84;73.44;45132.84;5072480;28;20867;-74
2022/01/29 03:13:57;;;;;;;11.53;7.20;;;;;;;-143.84;73.50;45169.03;5070899;28;20483;-74
2022/01/29 03:16:24;;;;;;;12.93;6.07;;;;;;;-143.84;73.49;45148.09;5070559;28;20496;-74
2022/01/29 03:18:52;;;;;;;11.03;6.23;;;;;;;-143.84;73.87;45148.09;5070899;28;20445;-74
2022/01/29 03:21:19;;;;;;;10.43;6.50;;;;;;;-143.84;73.70;45174.75;5071239;28;20436;-75
2022/01/29 03:23:46;;;;;;;9.63;6.10;;;;;;;-143.84;73.84;45146.19;5072302;28;20437;-75
2022/01/29 03:26:13;;;;;;;12.70;6.20;;;;;;;-143.84;73.92;45170.94;5072403;28;20442;-75
2022/01/29 03:28:42;;;;;;;12.53;6.50;;;;;;;-143.84;74.01;45159.50;5070993;28;20436;-74
2022/01/29 03:31:09;;;;;;;9.40;6.73;;;;;;;-143.84;74.02;45144.28;5071805;28;20440;-74
2022/01/29 03:33:36;;;;;;;7.93;5.90;;;;;;;-143.84;74.39;45142.38;5072094;28;20477;-74
2022/01/29 03:36:05;;;;;;;16.30;7.20;;;;;;;-143.84;74.07;45174.75;5072390;28;20438;-74
2022/01/29 03:38:32;;;;;;;9.77;6.10;;;;;;;-143.84;74.34;45151.91;5070928;28;20541;-74
2022/01/29 03:41:00;;;;;;;10.97;6.87;;;;;;;-143.84;74.55;45148.09;5071491;28;21135;-75
2022/01/29 03:43:31;;;;;;;9.90;6.90;;;;;;;-143.84;74.29;45178.56;5072105;28;20462;-74
2022/01/29 03:46:00;;;;;;;10.27;6.07;;;;;;;-143.84;74.30;45167.13;5071892;28;20433;-74
2022/01/29 03:48:27;;;;;;;12.03;6.37;;;;;;;-143.84;74.54;45148.09;5071949;28;20444;-74
2022/01/29 03:50:54;;;;;;;7.87;6.00;;;;;;;-143.84;74.75;45151.91;5072323;28;20496;-74
2022/01/29 03:53:22;;;;;;;12.47;6.90;;;;;;;-143.84;75.09;45151.91;5070246;28;21021;-74
2022/01/29 03:55:49;;;;;;;15.20;6.37;;;;;;;-143.84;74.78;45155.69;5069356;28;20494;-74
2022/01/29 03:58:16;;;;;;;8.77;5.77;;;;;;;-143.84;74.99;45153.81;5069740;28;20440;-74
2022/01/29 04:00:43;;;;;;;12.40;5.90;;;;;;;-143.84;75.36;45121.44;5071214;28;20437;-75
2022/01/29 04:03:12;;;;;;;12.83;6.00;;;;;;;-143.84;74.90;45138.56;5071531;28;20507;-74
2022/01/29 04:05:39;;;;;;;7.10;5.80;;;;;;;-143.84;75.14;45136.66;5071578;28;20986;-74
2022/01/29 04:08:14;;;;;;;9.30;6.10;;;;;;;-143.84;75.46;45170.94;5071769;28;21012;-74
2022/01/29 04:10:42;;;;;;;6.93;5.70;;;;;;;-143.84;75.47;45134.75;5072113;28;20526;-74
2022/01/29 04:13:12;;;;;;;10.43;6.17;;;;;;;-143.84;75.41;45140.47;5071785;28;20817;-74
2022/01/29 04:15:39;;;;;;;14.10;7.30;;;;;;;-143.84;75.64;45157.59;5071789;28;20992;-74
2022/01/29 04:18:07;;;;;;;11.13;7.00;;;;;;;-143.84;75.28;45153.81;5071772;28;20519;-74
2022/01/29 04:20:35;;;;;;;10.67;6.93;;;;;;;-143.84;75.75;45146.19;5071137;28;20487;-73
2022/01/29 04:23:02;;;;;;;9.10;6.97;;;;;;;-143.84;76.13;45150.00;5071777;28;20970;-74
2022/01/29 04:25:30;;;;;;;13.53;6.93;;;;;;;-143.84;76.23;45150.00;5071515;28;20438;-74
2022/01/29 04:27:57;;;;;;;11.90;6.60;;;;;;;-143.84;75.84;45138.56;5071432;28;20464;-74
2022/01/29 04:30:29;;;;;;;13.60;8.50;;;;;;;-143.84;75.97;45144.28;5071095;28;20445;-74
2022/01/29 04:33:14;;;;;;;9.60;6.80;;;;;;;-143.84;75.79;45136.66;5071089;28;20502;-74
2022/01/29 04:35:43;;;;;;;13.27;7.80;;;;;;;-143.84;76.24;45157.59;5071536;28;20512;-74
2022/01/29 04:38:10;;;;;;;13.23;7.20;;;;;;;-143.84;76.65;45155.69;5070233;28;20860;-74
2022/01/29 04:40:38;;;;;;;13.67;7.97;;;;;;;-143.84;76.93;45148.09;5070766;28;20444;-73
2022/01/29 04:43:05;;;;;;;14.40;7.50;;;;;;;-143.84;77.08;45151.91;5070938;28;20433;-74
2022/01/29 04:45:33;;;;;;;11.90;7.40;;;;;;;-143.84;77.22;45161.41;5069508;28;20444;-74
2022/01/29 04:48:00;;;;;;;12.90;8.50;;;;;;;-143.84;77.32;45155.69;5069953;28;20490;-74
2022/01/29 04:50:27;;;;;;;13.67;8.90;;;;;;;-143.84;77.09;45151.91;5068984;28;20470;-74
2022/01/29 04:52:56;;;;;;;11.03;8.87;;;;;;;-143.84;77.32;45159.50;5070031;28;20476;-74
2022/01/29 04:55:23;;;;;;;10.97;7.83;;;;;;;-143.84;77.66;45159.50;5069287;28;20448;-73
2022/01/29 04:57:50;;;;;;;16.73;6.70;;;;;;;-143.84;78.00;45157.59;5070798;28;20437;-75
2022/01/29 05:00:20;;;;;;;16.57;7.70;;;;;;;-143.84;77.74;45170.94;5071547;28;20440;-74
2022/01/29 05:02:47;;;;;;;11.70;7.60;;;;;;;-143.84;77.79;45127.13;5071118;28;20436;-74
2022/01/29 05:05:15;;;;;;;10.80;8.20;;;;;;;-143.84;77.88;45186.16;5070400;28;20563;-73
2022/01/29 05:07:42;;;;;;;10.23;7.50;;;;;;;-143.84;77.82;45150.00;5069736;28;21120;-75
2022/01/29 05:10:11;;;;;;;13.10;7.50;;;;;;;-143.84;77.91;45140.47;5072490;28;20444;-74
2022/01/29 05:12:46;;;;;;;14.00;8.27;;;;;;;-143.84;77.66;45140.47;5073443;28;20429;-74
2022/01/29 05:15:21;;;;;;;10.70;7.53;;;;;;;-143.84;77.79;45155.69;5073802;28;20509;-74
2022/01/29 05:28:47;;;;;;;13.47;7.47;;;;;;;-143.84;78.62;45155.69;5090421;28;20443;-72
2022/01/29 05:31:15;;;;;;;12.07;8.00;;;;;;;-143.84;77.94;45150.00;5093880;28;20447;-74
2022/01/29 05:33:42;;;;;;;11.90;7.97;;;;;;;-143.84;77.99;45148.09;5072143;28;20480;-74
2022/01/29 05:36:09;;;;;;;11.00;7.90;;;;;;;-143.84;78.27;45161.41;5073010;28;20444;-71
2022/01/29 05:38:37;;;;;;;12.23;9.07;;;;;;;-143.84;78.04;45153.81;5072650;28;20582;-71
2022/01/29 05:41:06;;;;;;;18.43;9.00;;;;;;;-143.84;77.90;45178.56;5072320;28;20954;-70
2022/01/29 05:43:33;;;;;;;14.27;8.43;;;;;;;-143.84;78.41;45176.66;5073059;28;20519;-70
2022/01/29 05:46:01;;;;;;;17.30;9.27;;;;;;;-143.84;77.73;45150.00;5072691;28;20448;-71
2022/01/29 05:48:28;;;;;;;14.73;7.87;;;;;;;-143.84;77.73;45165.22;5073459;28;20876;-71
2022/01/29 05:50:56;;;;;;;15.40;8.53;;;;;;;-143.84;77.72;45157.59;5073786;28;20445;-71
2022/01/29 05:53:23;;;;;;;13.93;7.93;;;;;;;-143.84;77.59;45151.91;5073123;28;20488;-70
2022/01/29 05:55:50;;;;;;;14.60;7.30;;;;;;;-143.84;77.65;45174.75;5072613;28;20460;-71
2022/01/29 05:58:19;;;;;;;12.27;8.80;;;;;;;-143.84;77.68;45151.91;5072704;28;20962;-70
2022/01/29 06:00:46;;;;;;;15.07;8.73;;;;;;;-143.84;77.90;45178.56;5071896;28;20452;-70
2022/01/29 06:03:14;;;;;;;15.73;9.40;;;;;;;-143.84;77.92;45161.41;5072022;28;20465;-70
2022/01/29 06:05:41;;;;;;;10.00;8.40;;;;;;;-143.84;78.12;45151.91;5072034;28;20484;-75
2022/01/29 06:08:08;;;;;;;13.13;7.60;;;;;;;-143.84;77.85;45151.91;5073737;28;20448;-75
2022/01/29 06:10:36;;;;;;;10.67;6.90;;;;;;;-143.84;77.74;45159.50;5064085;28;20462;-73
2022/01/29 06:13:04;;;;;;;21.20;8.90;;;;;;;-143.84;77.23;45169.03;5071554;28;20453;-73
2022/01/29 06:15:38;;;;;;;17.93;8.67;;;;;;;-143.84;77.05;45136.66;5071839;28;20457;-73
2022/01/29 06:18:07;;;;;;;13.57;9.13;;;;;;;-143.84;77.40;45165.22;5070800;28;20487;-74
2022/01/29 06:20:35;;;;;;;10.37;7.17;;;;;;;-143.84;77.35;45170.94;5071395;28;20492;-73
2022/01/29 06:23:03;;;;;;;15.07;7.73;;;;;;;-143.84;77.53;45155.69;5071292;28;20456;-74
2022/01/29 06:25:31;;;;;;;10.80;7.87;;;;;;;-143.84;77.56;45167.13;5070665;28;20829;-74
2022/01/29 06:27:58;;;;;;;12.53;7.70;;;;;;;-143.84;77.66;45140.47;5071070;28;21223;-74
2022/01/29 06:30:26;;;;;;;14.73;7.83;;;;;;;-143.84;77.34;45159.50;5070582;28;20986;-74
2022/01/29 06:32:54;;;;;;;18.43;8.73;;;;;;;-143.84;77.61;45140.47;5071016;28;20444;-74
2022/01/29 06:35:22;;;;;;;13.57;8.50;;;;;;;-143.84;77.63;45163.31;5073615;28;20452;-75
2022/01/29 06:37:49;;;;;;;14.57;7.47;;;;;;;-143.84;77.74;45161.41;5071031;28;20445;-73
2022/01/29 06:40:16;;;;;;;14.70;7.27;;;;;;;-143.84;77.55;45148.09;5071194;28;20479;-73
2022/01/29 06:42:45;;;;;;;16.77;7.97;;;;;;;-143.84;77.88;45127.13;5070395;28;20506;-73
2022/01/29 06:45:12;;;;;;;12.27;7.47;;;;;;;-143.84;77.58;45148.09;5071050;28;20448;-72
2022/01/29 06:47:40;;;;;;;13.50;7.67;;;;;;;-143.84;77.51;45176.66;5070204;28;20452;-73
2022/01/29 06:50:09;;;;;;;14.23;8.30;;;;;;;-143.84;76.80;45125.22;5070418;28;20443;-73
2022/01/29 06:52:37;;;;;;;12.40;8.10;;;;;;;-143.84;75.97;45163.31;5070476;28;20507;-73
2022/01/29 06:55:04;;;;;;;10.77;7.50;;;;;;;-143.84;76.44;45167.13;5070674;28;20475;-73
2022/01/29 06:57:32;;;;;;;11.37;8.10;;;;;;;-143.84;75.60;45130.94;5052407;28;20440;-73
2022/01/29 06:59:59;;;;;;;12.43;7.40;;;;;;;-143.84;75.12;45127.13;5068746;28;20503;-73
2022/01/29 07:02:26;;;;;;;12.20;7.40;;;;;;;-143.84;75.15;45150.00;5059295;28;20449;-73
2022/01/29 07:04:53;;;;;;;11.73;7.63;;;;;;;-143.84;73.99;45148.09;5053413;28;20488;-73
2022/01/29 07:07:22;;;;;;;13.10;6.73;;;;;;;-143.84;73.39;45104.28;5068138;28;21049;-74
2022/01/29 07:09:49;;;;;;;21.73;7.13;;;;;;;-143.84;73.36;45165.22;5069904;28;21021;-74
2022/01/29 07:12:16;;;;;;;15.43;8.50;;;;;;;-143.84;72.74;45146.19;5069500;28;20457;-74
2022/01/29 07:14:43;;;;;;;9.83;7.33;;;;;;;-143.84;72.36;45174.75;5069845;28;20491;-74
2022/01/29 07:17:12;;;;;;;12.03;7.00;;;;;;;-143.84;71.82;45178.56;5069635;28;20466;-74
2022/01/29 07:19:40;;;;;;;11.17;7.37;;;;;;;-143.84;71.59;45121.44;5070334;28;20817;-74
2022/01/29 07:22:08;;;;;;;9.97;6.90;;;;;;;-143.84;70.97;45111.91;5068712;28;20505;-72
2022/01/29 07:24:37;;;;;;;9.10;8.03;;;;;;;-143.84;70.16;45134.75;5049113;22;20846;-69
2022/01/29 07:27:05;;;;;;;12.60;8.27;;;;;;;-143.84;70.34;45144.28;5039856;28;20985;-70
2022/01/29 07:29:33;;;;;;;10.47;7.13;;;;;;;-143.84;70.08;45140.47;5040241;28;21043;-70
2022/01/29 07:32:01;;;;;;;8.87;7.23;;;;;;;-143.84;69.75;45125.22;5038876;28;20454;-70
2022/01/29 07:34:28;;;;;;;10.17;7.73;;;;;;;-143.84;69.34;45125.22;5036797;28;20488;-69
2022/01/29 07:36:59;;;;;;;14.57;7.40;;;;;;;-143.84;68.98;45140.47;5039158;28;20508;-70
2022/01/29 07:39:27;;;;;;;9.40;6.30;;;;;;;-143.84;67.89;45140.47;5041008;28;20442;-69
2022/01/29 07:41:56;;;;;;;11.63;7.40;;;;;;;-143.84;65.79;45142.38;5040189;28;20461;-69
2022/01/29 07:44:24;;;;;;;9.40;6.80;;;;;;;-143.84;65.37;45148.09;5036540;28;21140;-69
2022/01/29 07:46:52;;;;;;;14.93;7.53;;;;;;;-143.84;65.05;45142.38;5041320;28;20453;-69
2022/01/29 07:49:19;;;;;;;11.20;7.90;;;;;;;-143.84;64.19;45134.75;5038220;28;20450;-70
2022/01/29 07:51:46;;;;;;;13.03;7.03;;;;;;;-143.84;63.88;45148.09;5037994;28;20962;-70
2022/01/29 07:54:14;;;;;;;12.40;8.00;;;;;;;-143.84;63.31;45121.44;5034256;28;20488;-69
2022/01/29 07:56:41;;;;;;;11.63;7.00;;;;;;;-143.84;62.71;45125.22;5039090;28;20451;-69
2022/01/29 07:59:09;;;;;;;11.40;7.30;;;;;;;-143.84;62.08;45110.00;5038819;28;21770;-69
2022/01/29 08:01:36;;;;;;;14.57;8.10;;;;;;;-143.84;61.22;45127.13;5040093;28;20452;-70
2022/01/29 08:04:04;;;;;;;27.43;9.90;;;;;;;-143.84;61.30;45110.00;5041513;28;20453;-70
2022/01/29 08:06:31;;;;;;;16.10;7.10;;;;;;;-143.84;59.28;45110.00;5043354;28;20436;-69
2022/01/29 08:08:59;;;;;;;10.20;7.27;;;;;;;-143.84;58.59;45119.53;5040337;28;20449;-70
2022/01/29 08:11:26;;;;;;;10.93;7.00;;;;;;;-143.84;57.83;45092.88;5038831;28;20608;-70
2022/01/29 08:13:53;;;;;;;13.73;6.33;;;;;;;-143.84;56.29;45094.78;5037979;28;20478;-69
2022/01/29 08:16:22;;;;;;;9.67;6.90;;;;;;;-143.84;55.74;45108.09;5038438;28;20455;-70
2022/01/29 08:18:50;;;;;;;9.10;6.47;;;;;;;-143.84;53.69;45102.38;5037207;28;20465;-71
2022/01/29 08:21:19;;;;;;;10.43;6.70;;;;;;;-143.84;53.09;45104.28;5035242;28;20933;-70
2022/01/29 08:23:46;;;;;;;7.30;5.50;;;;;;;-143.84;52.27;45090.97;5035482;28;20486;-71
2022/01/29 08:26:14;;;;;;;18.30;6.73;;;;;;;-143.84;51.50;45090.97;5046448;28;20444;-71
2022/01/29 08:28:41;;;;;;;8.07;6.30;;;;;;;-143.84;49.29;45085.25;5037857;28;20450;-71
2022/01/29 08:31:09;;;;;;;8.77;6.00;;;;;;;-143.84;47.84;45102.38;5037143;28;20448;-72
2022/01/29 08:33:38;;;;;;;6.40;5.73;;;;;;;-143.84;46.83;45089.06;5039184;28;20442;-71
2022/01/29 08:36:07;;;;;;;8.80;5.10;;;;;;;-143.84;45.94;45077.63;5042442;28;20456;-71
2022/01/29 08:38:34;;;;;;;8.80;5.20;;;;;;;-143.84;44.85;45094.78;5042137;28;20530;-72
2022/01/29 08:41:02;;;;;;;9.37;5.63;;;;;;;-143.84;43.86;45087.16;5039034;28;20454;-72
2022/01/29 08:43:29;;;;;;;12.97;5.13;;;;;;;-143.84;43.79;45102.38;5043086;28;20555;-72
2022/01/29 08:45:56;;;;;;;6.17;5.57;;;;;;;-143.84;42.62;45087.16;5043799;28;20465;-72
2022/01/29 08:48:24;;;;;;;5.50;4.77;;;;;;;-143.84;42.53;45090.97;5043497;28;20450;-72
2022/01/29 08:50:52;;;;;;;12.53;5.23;;;;;;;-143.84;42.14;45075.72;5042762;28;20504;-71
2022/01/29 08:53:20;;;;;;;6.87;5.00;;;;;;;-143.84;41.17;45083.34;5043053;28;20468;-70
2022/01/29 08:55:48;;;;;;;6.77;4.70;;;;;;;-143.84;41.84;45083.34;5052269;28;20489;-70
2022/01/29 08:58:15;;;;;;;6.40;4.63;;;;;;;-143.84;41.28;45052.88;5051677;28;20447;-75
2022/01/29 09:00:45;;;;;;;5.90;4.70;;;;;;;-143.84;40.78;45056.69;5050983;28;20456;-73
2022/01/29 09:03:14;;;;;;;6.63;5.33;;;;;;;-143.84;39.89;45049.06;5048924;28;20430;-72
2022/01/29 09:05:43;;;;;;;4.53;4.13;;;;;;;-143.84;38.46;45062.41;5051137;28;20456;-73
2022/01/29 09:08:13;;;;;;;5.93;4.60;;;;;;;-143.84;38.44;45050.97;5044999;28;21225;-74
2022/01/29 09:10:40;;;;;;;5.93;4.23;;;;;;;-143.84;38.05;45062.41;5047853;28;20449;-73
2022/01/29 09:13:07;;;;;;;9.83;3.40;;;;;;;-143.84;36.79;45049.06;5044924;28;20814;-73
2022/01/29 09:15:35;;;;;;;3.93;3.57;;;;;;;-143.84;36.73;45071.91;5048584;28;20484;-74
2022/01/29 09:18:02;;;;;;;3.83;3.53;;;;;;;-143.84;36.43;45054.78;5046262;28;20441;-74
2022/01/29 09:20:30;;;;;;;5.27;4.37;;;;;;;-143.84;36.44;45041.44;5043692;28;20433;-73
2022/01/29 09:22:58;;;;;;;4.20;3.80;;;;;;;-143.84;36.10;45049.06;5049956;28;21856;-73
2022/01/29 09:25:27;;;;;;;3.83;3.33;;;;;;;-143.84;35.90;45049.06;5047766;28;20452;-73
2022/01/29 09:27:54;;;;;;;4.37;3.37;;;;;;;-143.84;35.42;45054.78;5040524;28;20547;-73
2022/01/29 09:30:22;;;;;;;5.57;3.83;;;;;;;-143.84;34.91;45049.06;5044067;28;20862;-73
2022/01/29 09:32:50;;;;;;;4.00;3.10;;;;;;;-143.84;35.79;45047.16;5044234;28;20440;-73
2022/01/29 09:35:19;;;;;;;4.70;2.93;;;;;;;-143.84;34.41;45026.22;5044664;28;20484;-73
2022/01/29 09:37:46;;;;;;;7.77;3.33;;;;;;;-143.84;34.13;45064.31;5046198;28;20975;-74
2022/01/29 09:40:14;;;;;;;6.90;3.37;;;;;;;-143.84;34.75;45026.22;5045373;28;20430;-73
2022/01/29 09:42:45;;;;;;;6.80;3.40;;;;;;;-143.84;34.69;45054.78;5044893;28;20435;-76
2022/01/29 09:45:14;;;;;;;4.53;3.90;;;;;;;-143.84;34.84;45035.75;5041702;28;20465;-75
2022/01/29 09:47:43;;;;;;;4.10;3.70;;;;;;;-143.84;35.36;45030.03;5042892;28;20528;-75
2022/01/29 09:50:11;;;;;;;3.03;2.73;;;;;;;-143.84;35.07;45064.31;5042896;28;21159;-76
2022/01/29 09:52:39;;;;;;;4.00;3.67;;;;;;;-143.84;35.16;45075.72;5044694;28;21132;-76
2022/01/29 09:55:07;;;;;;;3.50;3.17;;;;;;;-143.84;35.96;45049.06;5039170;28;20893;-76
2022/01/29 09:57:35;;;;;;;3.67;3.37;;;;;;;-143.84;36.50;45089.06;5046690;28;20787;-75
2022/01/29 10:00:05;;;;;;;3.30;3.10;;;;;;;-143.84;36.78;45070.00;5045772;28;20448;-75
2022/01/29 10:02:32;;;;;;;7.03;3.73;;;;;;;-143.84;37.16;45060.50;5050770;28;20450;-75
2022/01/29 10:04:59;;;;;;;5.37;4.20;;;;;;;-143.84;37.88;45064.31;5042906;28;20442;-75
2022/01/29 10:07:29;;;;;;;8.20;4.37;;;;;;;-143.84;38.08;45079.53;5042141;28;20454;-75
2022/01/29 10:09:59;;;;;;;5.20;4.23;;;;;;;-143.84;38.09;45062.41;5038577;28;20529;-76
2022/01/29 10:12:28;;;;;;;4.70;3.90;;;;;;;-143.84;38.38;45079.53;5038754;28;20947;-75
2022/01/29 10:14:57;;;;;;;4.17;3.80;;;;;;;-143.84;38.14;45083.34;5041694;28;20477;-76
2022/01/29 10:17:49;;;;;;;4.30;3.90;;;;;;;-143.84;38.22;45083.34;5043784;28;20462;-75
2022/01/29 10:20:21;;;;;;;3.73;3.30;;;;;;;-143.84;37.64;45089.06;5040219;28;20457;-75
2022/01/29 10:22:51;;;;;;;3.90;3.50;;;;;;;-143.84;37.58;45075.72;5046460;28;20490;-76
2022/01/29 10:25:21;;;;;;;6.20;3.40;;;;;;;-143.84;37.87;45079.53;5040176;28;20518;-75
2022/01/29 10:28:08;;;;;;;3.80;3.50;;;;;;;-143.84;37.12;45094.78;5040130;28;20464;-75
2022/01/29 10:30:37;;;;;;;6.63;3.30;;;;;;;-143.84;37.20;45087.16;5029231;28;20529;-75
2022/01/29 10:33:19;;;;;;;3.87;3.30;;;;;;;-143.84;37.18;45071.91;5039351;28;20452;-75
2022/01/29 10:35:48;;;;;;;3.20;2.57;;;;;;;-143.84;36.89;45081.44;5038765;28;20496;-75
2022/01/29 10:38:18;;;;;;;3.73;3.00;;;;;;;-143.84;37.07;45106.19;5037594;28;20459;-75
2022/01/29 10:40:46;;;;;;;7.47;2.80;;;;;;;-143.84;37.70;45049.06;5040417;28;20461;-75
2022/01/29 10:43:13;;;;;;;7.70;2.87;;;;;;;-143.84;36.75;45064.31;5038038;28;20965;-75
2022/01/29 10:45:41;;;;;;;2.70;2.10;;;;;;;-143.84;35.72;45062.41;5038692;28;20444;-74
2022/01/29 10:48:08;;;;;;;6.37;2.70;;;;;;;-143.84;34.86;45066.22;5038359;28;20507;-74
2022/01/29 10:50:37;;;;;;;4.03;2.23;;;;;;;-143.84;33.99;45062.41;5040227;28;20444;-71
2022/01/29 10:53:34;;;;;;;2.33;2.03;;;;;;;-143.84;33.89;45062.41;5036293;28;20454;-70
2022/01/29 10:56:03;;;;;;;7.10;2.40;;;;;;;-143.84;34.24;45075.72;4968029;28;20521;-72
2022/01/29 10:58:31;;;;;;;2.87;2.60;;;;;;;-143.84;34.66;45054.78;5023226;28;20458;-72
2022/01/29 11:01:15;;;;;;;2.80;2.60;;;;;;;-143.84;34.47;45050.97;5042759;28;20446;-74
2022/01/29 11:03:43;;;;;;;4.33;2.13;;;;;;;-143.84;33.75;45052.88;5038035;28;20478;-73
2022/01/29 11:06:16;;;;;;;2.50;2.30;;;;;;;-143.84;34.00;45049.06;5037548;28;20451;-73
2022/01/29 11:08:45;;;;;;;2.23;2.03;;;;;;;-143.84;32.77;45054.78;5036706;28;20497;-74
2022/01/29 11:11:14;;;;;;;2.10;2.00;;;;;;;-143.84;32.66;45056.69;5039618;28;20451;-74
2022/01/29 11:13:44;;;;;;;3.77;2.03;;;;;;;-143.84;31.82;45043.34;5036838;28;20441;-74
2022/01/29 11:16:12;;;;;;;2.47;2.27;;;;;;;-143.84;31.96;45066.22;5036116;28;20488;-74
2022/01/29 11:18:39;;;;;;;5.23;2.37;;;;;;;-143.84;32.92;45068.13;5037973;28;20466;-74
2022/01/29 11:21:07;;;;;;;4.17;2.60;;;;;;;-143.84;33.13;45050.97;5038308;28;20440;-74
2022/01/29 11:23:36;;;;;;;3.23;2.93;;;;;;;-143.84;34.05;45054.78;5036119;28;20503;-73
2022/01/29 11:26:05;;;;;;;4.27;2.90;;;;;;;-143.84;34.17;45071.91;5039203;28;20472;-73
2022/01/29 11:28:34;;;;;;;4.83;3.50;;;;;;;-143.84;34.02;45064.31;5038511;28;20466;-74